Time;durP1;ratioP1;P1;durP2;ratioP2;P2;SDS_P1;SDS_P2;PMS_P1;PMS_P2;Temp;Humidity;BMP_temperature;BMP_pressure;BME280_temperature;BME280_humidity;BME280_pressure;Samples;Min_cycle;Max_cycle;Signal;HPM_P1;HPM_P2
2022/07/21 00:01:48;;;;;;;6.00;5.40;;;26.00;99.90;;;;;;5012841;28;20506;-52
2022/07/21 00:04:15;;;;;;;8.50;5.20;;;26.00;99.90;;;;;;5013598;28;20518;-52
2022/07/21 00:06:42;;;;;;;9.57;5.40;;;26.00;99.90;;;;;;5011237;28;20960;-52
2022/07/21 00:09:10;;;;;;;6.03;5.33;;;25.90;99.90;;;;;;5011888;28;20491;-54
2022/07/21 00:11:37;;;;;;;14.80;5.67;;;25.90;99.90;;;;;;5011970;28;20491;-53
2022/07/21 00:14:05;;;;;;;13.97;6.43;;;25.90;99.90;;;;;;5012194;28;20467;-54
2022/07/21 00:16:31;;;;;;;7.73;5.13;;;25.80;99.90;;;;;;5008805;28;20483;-53
2022/07/21 00:18:59;;;;;;;11.90;6.10;;;25.80;99.90;;;;;;5010863;28;20453;-52
2022/07/21 00:21:25;;;;;;;7.20;5.60;;;25.80;99.90;;;;;;5012733;28;20833;-53
2022/07/21 00:23:52;;;;;;;10.20;5.37;;;25.70;99.90;;;;;;5009890;28;20522;-52
2022/07/21 00:26:20;;;;;;;6.70;5.47;;;25.70;99.90;;;;;;5026578;28;20510;-52
2022/07/21 00:28:47;;;;;;;13.43;5.57;;;25.70;99.90;;;;;;5014663;28;20482;-53
2022/07/21 00:31:14;;;;;;;11.60;6.53;;;25.70;99.90;;;;;;5024814;28;20468;-54
2022/07/21 00:33:41;;;;;;;7.93;5.97;;;25.70;99.90;;;;;;5016154;28;20502;-51
2022/07/21 00:36:08;;;;;;;7.60;6.10;;;25.60;99.90;;;;;;5020740;28;20471;-51
2022/07/21 00:38:35;;;;;;;7.40;5.50;;;25.60;99.90;;;;;;5015761;28;20969;-53
2022/07/21 00:41:02;;;;;;;14.63;5.67;;;25.60;99.90;;;;;;5016312;28;20463;-52
2022/07/21 00:43:30;;;;;;;14.20;6.00;;;25.50;99.90;;;;;;5012596;28;20467;-52
2022/07/21 00:45:56;;;;;;;13.20;6.00;;;25.50;99.90;;;;;;5020910;28;20462;-52
2022/07/21 00:48:23;;;;;;;9.73;6.70;;;25.50;99.90;;;;;;5005750;28;20479;-52
2022/07/21 00:50:50;;;;;;;5.77;5.23;;;25.40;99.90;;;;;;5020763;28;20930;-52
2022/07/21 00:53:16;;;;;;;12.83;5.73;;;25.40;99.90;;;;;;5016516;28;20513;-53
2022/07/21 00:55:44;;;;;;;6.53;5.43;;;25.40;99.90;;;;;;5014433;28;20468;-52
2022/07/21 00:58:11;;;;;;;9.03;5.57;;;25.40;99.90;;;;;;5012103;28;20479;-52
2022/07/21 01:00:40;;;;;;;9.63;5.20;;;25.40;99.90;;;;;;5011721;28;20463;-51
2022/07/21 01:03:07;;;;;;;9.20;5.47;;;25.30;99.90;;;;;;5011582;28;20521;-54
2022/07/21 01:05:34;;;;;;;13.90;6.23;;;25.30;99.90;;;;;;5007506;28;20467;-52
2022/07/21 01:08:02;;;;;;;10.43;5.93;;;25.30;99.90;;;;;;5023404;28;20518;-53
2022/07/21 01:10:30;;;;;;;14.20;5.40;;;25.30;99.90;;;;;;5012976;28;20535;-52
2022/07/21 01:12:57;;;;;;;8.30;6.00;;;25.30;99.90;;;;;;5019733;28;20856;-52
2022/07/21 01:15:24;;;;;;;7.00;5.37;;;25.30;99.90;;;;;;5016570;28;20513;-52
2022/07/21 01:17:53;;;;;;;8.77;5.37;;;25.20;99.90;;;;;;5016703;28;20527;-53
2022/07/21 01:20:21;;;;;;;6.47;5.73;;;25.30;99.90;;;;;;5011162;28;20455;-53
2022/07/21 01:22:51;;;;;;;6.90;5.37;;;25.30;99.90;;;;;;5014565;28;20862;-53
2022/07/21 01:25:21;;;;;;;10.00;6.30;;;25.30;99.90;;;;;;5013429;28;20878;-53
2022/07/21 01:27:47;;;;;;;8.87;5.67;;;25.30;99.90;;;;;;5009940;28;20850;-52
2022/07/21 01:30:15;;;;;;;14.53;4.97;;;25.30;99.90;;;;;;5023851;28;21046;-53
2022/07/21 01:32:43;;;;;;;14.57;5.53;;;25.30;99.90;;;;;;5018267;28;20470;-52
2022/07/21 01:35:12;;;;;;;5.83;5.43;;;25.30;99.90;;;;;;5015007;28;20509;-52
2022/07/21 01:37:41;;;;;;;8.57;6.10;;;25.30;99.90;;;;;;5019976;28;20638;-53
2022/07/21 01:42:55;;;;;;;8.50;5.90;;;25.30;99.90;;;;;;5010128;28;20957;-54
2022/07/21 01:45:23;;;;;;;19.70;6.27;;;25.20;99.90;;;;;;5014713;28;20459;-53
2022/07/21 01:47:50;;;;;;;13.10;6.07;;;25.20;99.90;;;;;;5012417;28;21009;-53
2022/07/21 01:50:18;;;;;;;9.27;6.20;;;25.20;99.90;;;;;;5019764;28;20479;-53
2022/07/21 01:52:45;;;;;;;7.37;6.00;;;25.20;99.90;;;;;;5018228;28;20514;-52
2022/07/21 01:55:13;;;;;;;14.40;6.43;;;25.20;99.90;;;;;;5017548;28;21020;-53
2022/07/21 01:57:40;;;;;;;8.40;5.77;;;25.20;99.90;;;;;;5014911;28;20483;-53
2022/07/21 02:00:08;;;;;;;13.77;5.60;;;25.10;99.90;;;;;;5018342;28;20444;-54
2022/07/21 02:02:35;;;;;;;10.10;6.23;;;25.10;99.90;;;;;;5005164;28;21134;-51
2022/07/21 02:05:01;;;;;;;12.20;6.40;;;25.10;99.90;;;;;;5009109;28;20510;-53
2022/07/21 02:07:28;;;;;;;10.83;6.17;;;25.10;99.90;;;;;;5006482;28;20514;-53
2022/07/21 02:09:54;;;;;;;14.17;5.60;;;25.00;99.90;;;;;;5012718;28;20538;-52
2022/07/21 02:12:23;;;;;;;12.47;5.93;;;24.90;99.90;;;;;;5010714;28;20464;-53
2022/07/21 02:14:50;;;;;;;9.30;6.10;;;24.90;99.90;;;;;;5020560;28;20451;-53
2022/07/21 02:17:17;;;;;;;8.13;6.00;;;24.90;99.90;;;;;;5008615;28;20479;-53
2022/07/21 02:19:43;;;;;;;9.23;6.00;;;24.80;99.90;;;;;;5027411;28;20438;-54
2022/07/21 02:22:10;;;;;;;10.70;5.43;;;24.80;99.90;;;;;;5016198;28;20460;-54
2022/07/21 02:24:37;;;;;;;10.70;6.40;;;24.70;99.90;;;;;;5012966;28;20512;-52
2022/07/21 02:27:03;;;;;;;11.10;5.80;;;24.70;99.90;;;;;;5009709;28;20511;-52
2022/07/21 02:29:31;;;;;;;18.33;6.90;;;24.60;99.90;;;;;;5017960;28;20483;-52
2022/07/21 02:31:58;;;;;;;5.87;5.00;;;24.60;99.90;;;;;;5004866;28;20472;-53
2022/07/21 02:34:25;;;;;;;11.27;6.17;;;24.60;99.90;;;;;;5017959;28;20945;-52
2022/07/21 02:36:51;;;;;;;7.90;6.10;;;24.50;99.90;;;;;;5011077;28;20541;-52
2022/07/21 02:39:18;;;;;;;13.20;5.60;;;24.50;99.90;;;;;;5009606;28;20456;-53
2022/07/21 02:41:45;;;;;;;47.93;7.10;;;24.50;99.90;;;;;;5013904;28;20463;-54
2022/07/21 02:44:11;;;;;;;24.43;6.30;;;24.50;99.90;;;;;;5013117;28;20471;-53
2022/07/21 02:46:39;;;;;;;15.07;6.20;;;24.40;99.90;;;;;;5010380;28;20538;-52
2022/07/21 02:49:06;;;;;;;8.90;5.93;;;24.40;99.90;;;;;;5018892;28;21882;-54
2022/07/21 02:51:32;;;;;;;9.53;6.30;;;24.30;99.90;;;;;;5010311;28;20514;-51
2022/07/21 02:53:59;;;;;;;6.13;5.53;;;24.30;99.90;;;;;;5015492;28;20455;-54
2022/07/21 02:56:26;;;;;;;7.53;5.67;;;24.30;99.90;;;;;;5017976;28;20977;-53
2022/07/21 02:58:52;;;;;;;5.87;5.30;;;24.30;99.90;;;;;;5010969;28;20514;-53
2022/07/21 03:01:19;;;;;;;9.60;6.27;;;24.20;99.90;;;;;;5013531;28;20464;-53
2022/07/21 03:03:47;;;;;;;7.17;5.70;;;24.20;99.90;;;;;;5008178;28;20456;-53
2022/07/21 03:06:14;;;;;;;9.47;5.70;;;24.20;99.90;;;;;;5015499;28;20514;-53
2022/07/21 03:08:40;;;;;;;11.63;6.07;;;24.20;99.90;;;;;;5013006;28;20459;-53
2022/07/21 03:11:07;;;;;;;9.53;6.30;;;24.20;99.90;;;;;;5022161;28;20463;-54
2022/07/21 03:13:34;;;;;;;14.03;5.20;;;24.20;99.90;;;;;;5019209;28;20464;-53
2022/07/21 03:16:01;;;;;;;6.33;5.70;;;24.20;99.90;;;;;;5021552;28;20458;-52
2022/07/21 03:18:27;;;;;;;8.10;5.60;;;24.10;99.90;;;;;;5014232;28;20954;-54
2022/07/21 03:20:57;;;;;;;9.83;5.37;;;24.20;99.90;;;;;;5018147;28;20459;-53
2022/07/21 03:23:24;;;;;;;11.27;5.63;;;24.10;99.90;;;;;;5013839;28;20542;-52
2022/07/21 03:25:50;;;;;;;10.70;5.30;;;24.10;99.90;;;;;;5014951;28;20502;-52
2022/07/21 03:28:17;;;;;;;9.43;5.87;;;24.10;99.90;;;;;;5011092;28;20463;-53
2022/07/21 03:30:44;;;;;;;8.00;5.17;;;24.20;99.90;;;;;;5005398;28;20487;-53
2022/07/21 03:33:11;;;;;;;6.23;5.70;;;24.10;99.90;;;;;;5021326;28;20468;-52
2022/07/21 03:35:37;;;;;;;6.70;5.50;;;24.20;99.90;;;;;;5021098;28;20525;-53
2022/07/21 03:38:06;;;;;;;8.83;6.33;;;24.10;99.90;;;;;;5013880;28;20537;-51
2022/07/21 03:40:35;;;;;;;12.83;6.30;;;24.10;99.90;;;;;;5010713;28;20455;-51
2022/07/21 03:43:04;;;;;;;16.80;6.57;;;24.10;99.90;;;;;;5012437;28;20463;-51
2022/07/21 03:45:32;;;;;;;7.40;5.73;;;24.10;99.90;;;;;;5008754;28;20463;-51
2022/07/21 03:47:59;;;;;;;14.00;6.40;;;24.10;99.90;;;;;;5011764;28;20549;-51
2022/07/21 03:50:26;;;;;;;11.97;5.70;;;24.10;99.90;;;;;;5014635;28;20992;-50
2022/07/21 03:52:53;;;;;;;12.60;6.30;;;24.10;99.90;;;;;;5023668;28;20880;-50
2022/07/21 03:55:21;;;;;;;17.73;6.10;;;24.00;99.90;;;;;;5013430;28;20557;-50
2022/07/21 03:57:50;;;;;;;9.27;5.90;;;24.00;99.90;;;;;;5013521;28;20893;-51
2022/07/21 04:00:19;;;;;;;12.00;5.87;;;24.00;99.90;;;;;;5013017;28;20510;-51
2022/07/21 04:02:46;;;;;;;6.23;5.63;;;23.90;99.90;;;;;;5020981;28;20456;-52
2022/07/21 04:05:13;;;;;;;11.00;5.67;;;23.90;99.90;;;;;;5006267;28;20463;-52
2022/07/21 04:07:41;;;;;;;9.47;6.10;;;23.80;99.90;;;;;;5011227;28;20541;-52
2022/07/21 04:10:09;;;;;;;10.00;6.17;;;23.80;99.90;;;;;;5011255;28;20484;-52
2022/07/21 04:12:37;;;;;;;8.80;5.40;;;23.70;99.90;;;;;;5012494;28;20836;-51
2022/07/21 04:15:05;;;;;;;7.20;5.47;;;23.70;99.90;;;;;;5012328;28;20456;-50
2022/07/21 04:17:31;;;;;;;13.10;6.63;;;23.70;99.90;;;;;;5011171;28;20490;-51
2022/07/21 04:19:58;;;;;;;16.40;6.50;;;23.60;99.90;;;;;;5010926;28;20502;-52
2022/07/21 04:22:25;;;;;;;6.73;5.70;;;23.60;99.90;;;;;;5017262;28;20525;-51
2022/07/21 04:24:51;;;;;;;9.33;5.70;;;23.50;99.90;;;;;;5012367;28;20522;-51
2022/07/21 04:27:18;;;;;;;10.83;5.77;;;23.50;99.90;;;;;;5015417;28;20537;-51
2022/07/21 04:29:46;;;;;;;14.77;5.53;;;23.50;99.90;;;;;;5011359;28;21051;-50
2022/07/21 04:32:13;;;;;;;8.80;5.80;;;23.50;99.90;;;;;;5010577;28;20530;-50
2022/07/21 04:34:40;;;;;;;7.80;6.00;;;23.60;99.90;;;;;;5019674;28;20504;-51
2022/07/21 04:37:06;;;;;;;19.13;5.80;;;23.60;99.90;;;;;;5021639;28;20991;-51
2022/07/21 04:39:33;;;;;;;10.87;4.90;;;23.60;99.90;;;;;;5011366;28;20538;-51
2022/07/21 04:41:59;;;;;;;13.70;5.63;;;23.70;99.90;;;;;;5011996;28;20468;-51
2022/07/21 04:44:26;;;;;;;8.40;5.00;;;23.80;99.90;;;;;;5014252;28;20513;-52
2022/07/21 04:46:54;;;;;;;6.53;5.67;;;23.80;99.90;;;;;;5019477;28;20511;-52
2022/07/21 04:49:21;;;;;;;8.47;5.43;;;23.90;99.90;;;;;;5019569;28;20884;-51
2022/07/21 04:51:47;;;;;;;17.53;5.40;;;23.90;99.90;;;;;;5012795;28;20464;-52
2022/07/21 04:54:14;;;;;;;8.20;5.50;;;24.00;99.90;;;;;;5016144;28;20964;-51
2022/07/21 04:56:41;;;;;;;12.40;5.20;;;24.10;99.90;;;;;;5015471;28;20479;-51
2022/07/21 04:59:08;;;;;;;10.80;5.83;;;24.10;99.90;;;;;;5019841;28;20448;-51
2022/07/21 05:01:35;;;;;;;8.70;6.07;;;24.10;99.90;;;;;;5011055;28;20463;-51
2022/07/21 05:04:03;;;;;;;12.77;6.63;;;24.10;99.90;;;;;;5015918;28;20494;-51
2022/07/21 05:06:29;;;;;;;10.40;6.40;;;24.00;99.90;;;;;;5021248;28;20468;-51
2022/07/21 05:08:56;;;;;;;8.83;7.07;;;23.90;99.90;;;;;;5013667;28;20464;-51
2022/07/21 05:11:23;;;;;;;10.70;6.77;;;23.80;99.90;;;;;;5018230;28;20517;-51
2022/07/21 05:13:49;;;;;;;15.27;8.97;;;23.80;99.90;;;;;;5011934;28;20464;-51
2022/07/21 05:16:16;;;;;;;16.87;10.43;;;23.80;99.90;;;;;;5015102;28;20830;-51
2022/07/21 05:18:42;;;;;;;14.40;11.60;;;23.70;99.90;;;;;;5012940;28;20455;-51
2022/07/21 05:21:10;;;;;;;19.23;11.63;;;23.60;99.90;;;;;;5008194;28;20514;-50
2022/07/21 05:23:37;;;;;;;16.03;12.43;;;23.50;99.90;;;;;;5012165;28;20447;-51
2022/07/21 05:26:04;;;;;;;15.17;11.40;;;23.30;99.90;;;;;;5011349;28;20895;-51
2022/07/21 05:28:31;;;;;;;22.03;12.70;;;23.30;99.90;;;;;;5017086;28;20520;-51
2022/07/21 05:30:57;;;;;;;20.60;13.63;;;23.20;99.90;;;;;;5016078;28;20510;-52
2022/07/21 05:33:24;;;;;;;21.87;13.73;;;23.10;99.90;;;;;;5019906;28;20470;-51
2022/07/21 05:35:51;;;;;;;25.83;14.40;;;23.10;99.90;;;;;;5013639;28;20521;-51
2022/07/21 05:38:19;;;;;;;23.33;14.10;;;23.10;99.90;;;;;;5017748;28;20459;-51
2022/07/21 05:40:45;;;;;;;16.10;14.07;;;23.20;99.90;;;;;;5014412;28;20514;-52
2022/07/21 05:43:12;;;;;;;22.00;15.03;;;23.20;99.90;;;;;;5005374;28;21017;-50
2022/07/21 05:45:38;;;;;;;32.93;16.60;;;23.20;99.90;;;;;;5024050;28;20443;-52
2022/07/21 05:48:05;;;;;;;21.87;16.47;;;23.30;99.90;;;;;;5020553;28;20479;-52
2022/07/21 05:50:32;;;;;;;24.60;17.17;;;23.30;99.90;;;;;;5015172;28;20482;-51
2022/07/21 05:52:59;;;;;;;26.73;16.07;;;23.30;99.90;;;;;;5020403;28;20464;-51
2022/07/21 05:55:27;;;;;;;28.70;17.50;;;23.30;99.90;;;;;;5015939;28;20467;-50
2022/07/21 05:57:53;;;;;;;31.43;16.60;;;23.30;99.90;;;;;;5009380;28;20487;-50
2022/07/21 06:00:20;;;;;;;21.43;16.80;;;23.30;99.90;;;;;;5010928;28;20463;-50
2022/07/21 06:02:47;;;;;;;29.07;19.27;;;23.20;99.90;;;;;;5009608;28;20451;-51
2022/07/21 06:05:15;;;;;;;26.70;17.30;;;23.20;99.90;;;;;;5011634;28;20498;-53
2022/07/21 06:07:41;;;;;;;26.03;18.60;;;23.30;99.90;;;;;;5009517;28;20487;-52
2022/07/21 06:10:09;;;;;;;24.90;19.10;;;23.30;99.90;;;;;;5011601;28;20480;-52
2022/07/21 06:12:37;;;;;;;20.53;17.47;;;23.30;99.90;;;;;;5010477;28;20942;-53
2022/07/21 06:15:04;;;;;;;29.37;21.00;;;23.30;99.90;;;;;;5010840;28;20440;-53
2022/07/21 06:17:32;;;;;;;30.17;20.47;;;23.30;99.90;;;;;;5007822;28;20506;-53
2022/07/21 06:19:59;;;;;;;24.00;18.93;;;23.30;99.90;;;;;;5009696;28;20458;-52
2022/07/21 06:22:26;;;;;;;31.50;18.40;;;23.30;99.90;;;;;;5015583;28;20486;-53
2022/07/21 06:24:52;;;;;;;25.10;18.63;;;23.40;99.90;;;;;;5008356;28;20821;-53
2022/07/21 06:27:19;;;;;;;28.83;18.63;;;23.30;99.90;;;;;;5015181;28;20517;-53
2022/07/21 06:29:47;;;;;;;22.90;17.10;;;23.40;99.90;;;;;;5011148;28;20494;-52
2022/07/21 06:32:13;;;;;;;22.33;17.80;;;23.50;99.90;;;;;;5014998;28;20508;-52
2022/07/21 06:34:40;;;;;;;38.67;18.43;;;23.60;99.90;;;;;;5022309;28;20463;-53
2022/07/21 06:37:07;;;;;;;23.67;17.17;;;23.50;99.90;;;;;;5012769;28;20534;-53
2022/07/21 06:39:33;;;;;;;22.23;17.20;;;23.60;99.90;;;;;;5010271;28;20463;-53
2022/07/21 06:42:00;;;;;;;23.27;17.87;;;23.60;99.90;;;;;;5010096;28;20439;-52
2022/07/21 06:44:26;;;;;;;28.63;17.77;;;23.70;99.90;;;;;;5016045;28;20921;-53
2022/07/21 06:46:54;;;;;;;20.40;16.40;;;23.60;99.90;;;;;;5022567;28;20460;-51
2022/07/21 06:49:21;;;;;;;25.93;17.80;;;23.60;99.90;;;;;;5005958;28;20467;-51
2022/07/21 06:51:48;;;;;;;25.40;17.53;;;23.60;99.90;;;;;;5008691;28;20561;-51
2022/07/21 06:54:14;;;;;;;22.17;17.53;;;23.60;99.90;;;;;;5009645;28;20529;-51
2022/07/21 06:56:41;;;;;;;18.87;16.80;;;23.60;99.90;;;;;;5011426;28;20529;-52
2022/07/21 06:59:07;;;;;;;29.13;16.50;;;23.60;99.90;;;;;;5007927;28;20459;-50
2022/07/21 07:01:35;;;;;;;23.80;17.10;;;23.60;99.90;;;;;;5017301;28;20480;-52
2022/07/21 07:04:04;;;;;;;24.37;16.50;;;23.60;99.90;;;;;;5011964;28;20456;-51
2022/07/21 07:06:30;;;;;;;21.70;16.90;;;23.70;99.90;;;;;;5006612;28;20484;-51
2022/07/21 07:08:57;;;;;;;19.27;16.13;;;23.70;99.90;;;;;;5010252;28;20467;-51
2022/07/21 07:11:23;;;;;;;30.37;16.40;;;23.80;99.90;;;;;;5014818;28;21035;-51
2022/07/21 07:13:50;;;;;;;22.17;14.93;;;23.80;99.90;;;;;;5018754;28;20465;-51
2022/07/21 07:16:16;;;;;;;18.30;15.40;;;23.80;99.90;;;;;;5013437;28;20479;-51
2022/07/21 07:18:43;;;;;;;17.57;14.10;;;23.80;99.90;;;;;;5025571;28;20467;-51
2022/07/21 07:21:11;;;;;;;18.87;14.30;;;23.80;99.90;;;;;;5011345;28;20805;-52
2022/07/21 07:23:38;;;;;;;29.23;15.87;;;23.90;99.90;;;;;;5011086;28;20506;-50
2022/07/21 07:26:04;;;;;;;28.87;14.93;;;23.90;99.90;;;;;;5011569;28;20940;-51
2022/07/21 07:28:31;;;;;;;20.10;13.83;;;23.90;99.90;;;;;;5019762;28;20467;-52
2022/07/21 07:30:58;;;;;;;15.30;13.03;;;23.90;99.90;;;;;;5009468;28;20502;-53
2022/07/21 07:33:25;;;;;;;16.40;13.10;;;24.10;99.90;;;;;;5017895;28;20882;-54
2022/07/21 07:35:52;;;;;;;19.20;12.50;;;24.10;99.90;;;;;;5007208;28;20468;-54
2022/07/21 07:38:20;;;;;;;18.23;12.30;;;24.20;99.90;;;;;;5000495;28;20518;-53
2022/07/21 07:40:46;;;;;;;25.63;12.90;;;24.30;99.90;;;;;;5007183;28;20459;-54
2022/07/21 07:43:13;;;;;;;22.83;14.47;;;24.30;99.90;;;;;;5017955;28;20529;-52
2022/07/21 07:45:40;;;;;;;22.87;13.70;;;24.40;99.90;;;;;;5019031;28;20891;-53
2022/07/21 07:48:07;;;;;;;21.53;13.27;;;24.40;99.90;;;;;;5013453;28;20541;-53
2022/07/21 07:50:34;;;;;;;16.10;11.87;;;24.50;99.90;;;;;;5012781;28;20534;-52
2022/07/21 07:53:00;;;;;;;17.87;13.00;;;24.60;99.90;;;;;;5015576;28;20525;-52
2022/07/21 07:55:28;;;;;;;17.77;13.70;;;24.70;99.90;;;;;;5025875;28;20877;-53
2022/07/21 07:57:55;;;;;;;15.17;12.50;;;24.80;99.90;;;;;;5016838;28;20487;-51
2022/07/21 08:00:22;;;;;;;16.60;12.93;;;24.90;99.90;;;;;;5013893;28;20463;-52
2022/07/21 08:02:49;;;;;;;17.80;13.43;;;25.00;99.90;;;;;;5012873;28;20949;-53
2022/07/21 08:05:16;;;;;;;17.20;13.17;;;25.10;99.90;;;;;;5028506;28;20561;-54
2022/07/21 08:07:42;;;;;;;25.83;13.97;;;25.20;99.90;;;;;;5016869;28;20873;-52
2022/07/21 08:10:12;;;;;;;17.47;11.43;;;25.20;99.90;;;;;;5020129;28;20509;-51
2022/07/21 08:12:41;;;;;;;19.63;12.13;;;25.20;99.90;;;;;;5021329;28;20965;-51
2022/07/21 08:15:08;;;;;;;22.47;13.00;;;25.20;99.90;;;;;;5022568;28;20482;-51
2022/07/21 08:17:35;;;;;;;14.97;10.90;;;25.30;99.90;;;;;;5011915;28;20557;-52
2022/07/21 08:20:03;;;;;;;15.43;12.10;;;25.40;99.90;;;;;;5013757;28;20460;-51
2022/07/21 08:22:30;;;;;;;17.67;11.77;;;25.40;99.90;;;;;;5021462;28;20439;-51
2022/07/21 08:24:56;;;;;;;19.33;11.77;;;25.40;99.90;;;;;;5011062;28;20510;-51
2022/07/21 08:27:23;;;;;;;14.03;11.00;;;25.50;99.90;;;;;;5021302;28;20459;-51
2022/07/21 08:29:52;;;;;;;14.43;11.17;;;25.60;99.90;;;;;;5012067;28;20946;-51
2022/07/21 08:32:19;;;;;;;15.80;10.33;;;25.80;99.90;;;;;;5006424;28;21071;-51
2022/07/21 08:34:46;;;;;;;21.83;10.50;;;25.90;99.90;;;;;;5012777;28;20447;-51
2022/07/21 08:37:13;;;;;;;19.93;12.23;;;26.00;99.90;;;;;;5018403;28;20533;-51
2022/07/21 08:39:39;;;;;;;22.47;12.23;;;26.00;99.90;;;;;;5013264;28;20515;-51
2022/07/21 08:42:07;;;;;;;16.10;11.40;;;26.00;99.90;;;;;;5010769;28;20517;-52
2022/07/21 08:44:34;;;;;;;22.87;11.80;;;26.00;99.90;;;;;;5023413;28;20538;-51
2022/07/21 08:47:02;;;;;;;15.67;10.70;;;25.90;99.90;;;;;;5019878;28;20487;-51
2022/07/21 08:49:29;;;;;;;24.17;11.40;;;25.70;99.90;;;;;;5012967;28;20514;-51
2022/07/21 08:51:56;;;;;;;15.33;11.43;;;25.70;99.90;;;;;;5012803;28;20557;-51
2022/07/21 08:54:23;;;;;;;16.10;10.67;;;25.70;99.90;;;;;;5012213;28;21069;-51
2022/07/21 08:56:50;;;;;;;14.07;10.43;;;25.80;99.90;;;;;;5011520;28;20488;-51
2022/07/21 08:59:17;;;;;;;15.20;11.90;;;25.90;99.90;;;;;;5021478;28;20486;-51
2022/07/21 09:01:44;;;;;;;17.00;10.73;;;26.10;99.90;;;;;;5027684;28;20462;-50
2022/07/21 09:04:23;;;;;;;14.07;10.17;;;26.10;99.90;;;;;;5014726;28;20528;-51
2022/07/21 09:06:53;;;;;;;16.87;10.80;;;26.20;99.90;;;;;;5016217;28;20468;-51
2022/07/21 09:09:21;;;;;;;18.67;11.57;;;26.40;99.90;;;;;;5010883;28;20460;-51
2022/07/21 09:11:48;;;;;;;24.97;11.00;;;26.80;99.90;;;;;;5010186;28;20930;-51
2022/07/21 09:14:18;;;;;;;14.40;10.63;;;27.30;99.90;;;;;;5013875;28;20489;-51
2022/07/21 09:16:46;;;;;;;16.67;10.97;;;27.60;99.90;;;;;;5010812;28;20480;-51
2022/07/21 09:19:18;;;;;;;15.17;10.23;;;27.70;99.90;;;;;;5008902;28;20443;-51
2022/07/21 09:21:46;;;;;;;21.03;10.33;;;27.60;99.90;;;;;;5020656;28;20502;-51
2022/07/21 09:24:15;;;;;;;11.20;8.80;;;27.50;99.90;;;;;;5008414;28;20455;-52
2022/07/21 09:27:03;;;;;;;11.30;10.20;;;27.50;99.90;;;;;;5009633;28;20500;-51
2022/07/21 09:29:36;;;;;;;14.07;9.63;;;27.40;99.90;;;;;;5009533;28;20471;-51
2022/07/21 09:32:14;;;;;;;16.17;10.23;;;27.10;99.90;;;;;;5009565;28;20930;-52
2022/07/21 09:34:41;;;;;;;12.40;9.03;;;26.90;99.90;;;;;;5010640;28;20499;-51
2022/07/21 09:37:09;;;;;;;14.93;10.27;;;27.10;99.90;;;;;;5028819;28;20452;-52
2022/07/21 09:39:42;;;;;;;17.23;9.77;;;27.30;99.90;;;;;;5012186;28;20469;-53
2022/07/21 09:42:18;;;;;;;12.57;9.33;;;27.60;99.90;;;;;;5016960;28;20459;-62
2022/07/21 09:44:47;;;;;;;15.57;9.40;;;27.70;99.90;;;;;;5010253;28;20464;-53
2022/07/21 09:47:15;;;;;;;16.47;9.07;;;27.60;99.90;;;;;;5020416;28;20474;-52
2022/07/21 09:49:43;;;;;;;13.53;8.47;;;27.90;99.90;;;;;;5011577;28;20468;-52
2022/07/21 09:52:22;;;;;;;12.97;8.30;;;28.10;99.90;;;;;;5010829;28;20479;-53
2022/07/21 09:54:50;;;;;;;9.87;7.00;;;28.30;99.90;;;;;;5014112;28;20471;-52
2022/07/21 09:57:17;;;;;;;9.50;7.30;;;28.50;99.90;;;;;;5014126;28;20822;-53
2022/07/21 09:59:45;;;;;;;8.43;7.63;;;28.40;99.90;;;;;;5008383;28;21025;-53
2022/07/21 10:02:16;;;;;;;10.00;8.03;;;28.20;99.90;;;;;;5015305;28;20513;-52
2022/07/21 10:04:44;;;;;;;7.80;7.10;;;28.00;99.90;;;;;;5015507;28;20463;-53
2022/07/21 10:07:11;;;;;;;7.60;6.80;;;27.80;99.90;;;;;;5020282;28;20464;-53
2022/07/21 10:09:40;;;;;;;11.80;7.57;;;27.80;99.90;;;;;;5008975;28;20950;-53
2022/07/21 10:12:08;;;;;;;8.90;7.03;;;27.60;99.90;;;;;;5020408;28;20478;-52
2022/07/21 10:14:35;;;;;;;11.67;6.50;;;27.60;99.90;;;;;;5012146;28;20472;-52
2022/07/21 10:17:02;;;;;;;14.40;7.10;;;27.50;99.90;;;;;;5011914;28;20549;-53
2022/07/21 10:19:32;;;;;;;11.13;5.93;;;27.50;99.90;;;;;;5006975;28;20503;-53
2022/07/21 10:22:05;;;;;;;11.03;6.37;;;27.50;99.90;;;;;;5006632;28;20464;-53
2022/07/21 10:24:32;;;;;;;8.23;7.13;;;27.40;99.90;;;;;;5011209;28;20953;-52
2022/07/21 10:27:07;;;;;;;7.87;5.87;;;27.30;99.90;;;;;;5019117;28;20475;-52
2022/07/21 10:29:52;;;;;;;8.47;6.33;;;27.30;99.90;;;;;;5015996;28;20455;-53
2022/07/21 10:32:21;;;;;;;6.90;5.67;;;27.20;99.90;;;;;;5013602;28;20484;-53
2022/07/21 10:34:49;;;;;;;8.20;5.40;;;27.20;99.90;;;;;;5021917;28;20964;-52
2022/07/21 10:37:47;;;;;;;12.50;5.67;;;27.10;99.90;;;;;;5018206;28;20491;-53
2022/07/21 10:40:38;;;;;;;7.10;4.93;;;27.10;99.90;;;;;;5006856;28;20460;-54
2022/07/21 10:43:38;;;;;;;8.27;3.97;;;27.10;99.90;;;;;;5017167;28;20460;-53
2022/07/21 10:46:38;;;;;;;4.77;4.30;;;27.10;99.90;;;;;;5007661;28;20560;-53
2022/07/21 10:49:06;;;;;;;5.60;4.40;;;27.10;99.90;;;;;;5014179;28;20456;-53
2022/07/21 10:51:34;;;;;;;5.30;4.80;;;27.20;99.90;;;;;;5010308;28;20487;-53
2022/07/21 10:54:18;;;;;;;7.43;4.57;;;27.20;99.90;;;;;;5009781;28;20470;-52
2022/07/21 10:56:45;;;;;;;7.80;4.90;;;27.20;99.90;;;;;;5012238;28;20467;-52
2022/07/21 10:59:13;;;;;;;11.80;4.60;;;27.20;99.90;;;;;;5014771;28;20463;-52
2022/07/21 11:01:39;;;;;;;5.50;4.30;;;27.20;99.90;;;;;;5021082;28;20460;-53
2022/07/21 11:04:11;;;;;;;6.50;4.50;;;27.10;99.90;;;;;;5008236;28;20460;-53
2022/07/21 11:06:39;;;;;;;6.33;4.23;;;26.90;99.90;;;;;;5016819;28;20475;-53
2022/07/21 11:09:09;;;;;;;9.87;4.40;;;27.00;99.90;;;;;;5015831;28;20455;-52
2022/07/21 11:11:37;;;;;;;6.33;4.67;;;27.10;99.90;;;;;;5011147;28;20897;-53
2022/07/21 11:14:07;;;;;;;6.30;5.30;;;27.10;99.90;;;;;;5015640;28;20463;-53
2022/07/21 11:17:03;;;;;;;5.17;4.67;;;27.20;99.90;;;;;;5014295;28;20479;-52
2022/07/21 11:19:35;;;;;;;6.00;4.53;;;27.40;99.90;;;;;;5006131;28;20476;-53
2022/07/21 11:22:03;;;;;;;15.97;4.90;;;27.80;99.90;;;;;;5026169;28;20845;-53
2022/07/21 11:24:30;;;;;;;5.33;4.20;;;27.90;99.90;;;;;;5022102;28;21148;-53
2022/07/21 11:26:58;;;;;;;6.40;5.00;;;27.90;99.90;;;;;;5015757;28;20526;-53
2022/07/21 11:29:26;;;;;;;7.70;4.40;;;27.90;99.90;;;;;;5021701;28;20530;-52
2022/07/21 11:31:53;;;;;;;4.60;4.23;;;28.00;99.90;;;;;;5021487;28;20486;-53
2022/07/21 11:34:19;;;;;;;8.33;5.30;;;28.00;99.90;;;;;;5015859;28;20458;-52
2022/07/21 11:36:48;;;;;;;9.83;6.17;;;28.00;99.90;;;;;;5011716;28;20577;-53
2022/07/21 11:39:18;;;;;;;9.70;4.30;;;28.10;99.90;;;;;;5022375;28;21015;-52
2022/07/21 11:41:45;;;;;;;5.50;4.40;;;28.10;99.90;;;;;;5019123;28;20454;-53
2022/07/21 11:44:12;;;;;;;4.73;4.27;;;28.10;99.90;;;;;;5005717;28;20529;-52
2022/07/21 11:46:47;;;;;;;4.83;4.40;;;28.10;99.90;;;;;;5013153;28;20545;-53
2022/07/21 11:49:13;;;;;;;4.87;4.57;;;28.00;99.90;;;;;;5017806;28;20520;-53
2022/07/21 11:51:48;;;;;;;5.53;4.97;;;28.00;99.90;;;;;;5019377;28;20483;-53
2022/07/21 11:54:27;;;;;;;4.67;4.27;;;28.00;99.90;;;;;;5015618;28;20462;-53
2022/07/21 11:56:55;;;;;;;4.57;4.20;;;27.80;99.90;;;;;;5023479;28;20886;-51
2022/07/21 11:59:23;;;;;;;11.17;4.33;;;27.70;99.90;;;;;;5013526;28;20526;-54
2022/07/21 12:02:02;;;;;;;9.87;5.43;;;27.50;99.90;;;;;;5011574;28;20463;-52
2022/07/21 12:04:42;;;;;;;7.57;4.17;;;27.40;99.90;;;;;;5022603;28;21023;-53
2022/07/21 12:07:17;;;;;;;5.30;3.87;;;27.30;99.90;;;;;;5029385;28;20466;-53
2022/07/21 12:09:45;;;;;;;4.57;4.17;;;27.20;99.90;;;;;;5019627;28;20493;-51
2022/07/21 12:12:12;;;;;;;10.17;4.53;;;27.20;99.90;;;;;;5011181;28;21008;-53
2022/07/21 12:14:40;;;;;;;5.60;4.10;;;27.10;99.90;;;;;;5017260;28;20470;-53
2022/07/21 12:17:07;;;;;;;16.60;4.70;;;27.10;99.90;;;;;;5012290;28;20490;-53
2022/07/21 12:19:34;;;;;;;9.20;4.50;;;27.10;99.90;;;;;;5005448;28;20527;-52
2022/07/21 12:22:00;;;;;;;4.63;4.23;;;27.00;99.90;;;;;;5021879;28;20459;-53
2022/07/21 12:24:50;;;;;;;6.27;4.20;;;27.00;99.90;;;;;;5016472;28;20463;-52
2022/07/21 12:27:17;;;;;;;4.20;3.80;;;26.90;99.90;;;;;;5007253;28;20894;-52
2022/07/21 12:29:44;;;;;;;6.10;4.37;;;26.90;99.90;;;;;;5013445;28;20513;-52
2022/07/21 12:32:11;;;;;;;5.70;4.70;;;26.70;99.90;;;;;;5014485;28;20482;-52
2022/07/21 12:34:49;;;;;;;5.43;4.90;;;26.70;99.90;;;;;;5017946;28;20551;-52
2022/07/21 12:37:16;;;;;;;11.20;4.30;;;26.60;99.90;;;;;;5011516;28;20989;-52
2022/07/21 12:39:58;;;;;;;7.03;4.27;;;26.50;99.90;;;;;;5014046;28;20452;-52
2022/07/21 12:42:35;;;;;;;4.80;4.30;;;26.30;99.90;;;;;;5013370;28;20847;-53
2022/07/21 12:45:13;;;;;;;7.13;4.70;;;26.10;99.90;;;;;;5014886;28;20431;-52
2022/07/21 12:47:40;;;;;;;9.83;5.43;;;25.80;99.90;;;;;;5012662;28;20988;-52